Time;durP1;ratioP1;P1;durP2;ratioP2;P2;SDS_P1;SDS_P2;PMS_P1;PMS_P2;Temp;Humidity;BMP_temperature;BMP_pressure;BME280_temperature;BME280_humidity;BME280_pressure;Samples;Min_cycle;Max_cycle;Signal;HPM_P1;HPM_P2
2021/09/26 00:01:55;;;;;;;4.05;1.48;;;;;;;10.77;80.94;98353.16;5094745;28;20044;-80
2021/09/26 00:04:20;;;;;;;3.17;1.38;;;;;;;10.81;81.17;98362.44;5094838;28;20081;-82
2021/09/26 00:06:46;;;;;;;4.85;1.60;;;;;;;10.83;80.75;98352.56;5043052;28;20468;-81
2021/09/26 00:09:12;;;;;;;3.60;1.80;;;;;;;10.90;80.90;98362.53;5026756;28;20028;-78
2021/09/26 00:11:40;;;;;;;4.68;1.60;;;;;;;10.80;80.47;98368.75;5076199;28;20465;-78
2021/09/26 00:14:07;;;;;;;4.30;1.80;;;;;;;10.85;80.58;98370.91;5075687;28;20056;-77
2021/09/26 00:16:34;;;;;;;3.75;1.40;;;;;;;10.91;80.30;98366.84;5093844;28;20036;-76
2021/09/26 00:18:59;;;;;;;4.90;1.52;;;;;;;10.93;80.17;98362.22;5075605;28;20091;-76
2021/09/26 00:21:25;;;;;;;4.25;1.58;;;;;;;10.90;79.66;98362.53;5094209;28;20586;-76
2021/09/26 00:23:53;;;;;;;5.50;1.70;;;;;;;10.80;80.51;98357.31;5093556;28;20067;-76
2021/09/26 00:26:19;;;;;;;;;;;;;;;10.81;80.96;98359.81;5094319;28;20036;-78
2021/09/26 00:28:45;;;;;;;3.45;1.55;;;;;;;10.82;80.97;98356.19;5093331;28;19912;-79
2021/09/26 00:31:10;;;;;;;2.90;1.55;;;;;;;10.84;80.40;98354.22;5093791;28;20036;-78
2021/09/26 00:33:36;;;;;;;4.13;1.70;;;;;;;10.80;80.88;98352.88;5093558;28;20487;-75
2021/09/26 00:36:02;;;;;;;4.57;1.63;;;;;;;10.73;81.04;98359.75;5093401;28;20032;-75
2021/09/26 00:38:28;;;;;;;3.97;1.67;;;;;;;10.70;80.79;98352.13;5093918;28;20044;-77
2021/09/26 00:40:54;;;;;;;6.20;1.50;;;;;;;10.65;80.68;98355.22;5093818;28;20028;-76
2021/09/26 00:43:22;;;;;;;4.35;1.48;;;;;;;10.73;80.84;98351.81;5059299;28;20048;-77
2021/09/26 00:45:49;;;;;;;5.05;1.50;;;;;;;10.77;80.52;98361.09;5093149;28;20084;-78
2021/09/26 00:48:14;;;;;;;3.50;1.50;;;;;;;10.77;80.55;98357.66;5092362;28;20032;-79
2021/09/26 00:50:40;;;;;;;4.53;1.83;;;;;;;10.69;80.93;98363.66;5074737;28;20043;-82
2021/09/26 00:53:06;;;;;;;4.18;1.58;;;;;;;10.60;81.16;98361.94;5093599;28;20453;-76
2021/09/26 00:55:32;;;;;;;116.97;45.70;;;;;;;10.63;81.35;98365.13;5093446;28;20047;-78
2021/09/26 00:57:59;;;;;;;4.75;2.45;;;;;;;10.68;81.32;98368.13;5093318;28;20130;-76
2021/09/26 01:00:26;;;;;;;4.65;1.77;;;;;;;10.71;80.86;98367.00;5093217;28;20039;-78
2021/09/26 01:02:51;;;;;;;5.22;1.90;;;;;;;10.69;81.40;98361.03;5092704;28;20529;-80
2021/09/26 01:05:18;;;;;;;5.65;2.25;;;;;;;10.61;81.01;98368.91;5093234;28;20068;-80
2021/09/26 01:08:24;;;;;;;4.28;1.73;;;;;;;10.57;81.28;98362.25;5092749;28;20485;-79
2021/09/26 01:10:56;;;;;;;4.75;2.35;;;;;;;10.60;81.53;98362.75;5010536;28;20057;-79
2021/09/26 01:13:37;;;;;;;4.90;1.90;;;;;;;10.63;81.45;98369.56;5010344;28;20503;-76
2021/09/26 01:16:08;;;;;;;5.15;2.10;;;;;;;10.62;81.51;98362.63;5010202;28;20046;-75
2021/09/26 01:18:46;;;;;;;4.15;1.95;;;;;;;10.62;81.84;98370.56;5010713;28;20554;-81
2021/09/26 01:21:25;;;;;;;5.18;1.85;;;;;;;10.62;81.73;98374.03;5010577;28;20050;-78
2021/09/26 01:23:56;;;;;;;5.32;2.10;;;;;;;10.52;81.37;98382.03;5010085;28;20073;-76
2021/09/26 01:26:42;;;;;;;4.43;2.08;;;;;;;10.42;81.70;98389.19;5010322;28;20042;-76
2021/09/26 01:29:11;;;;;;;3.33;1.70;;;;;;;10.33;82.39;98377.69;4993599;28;20046;-77
2021/09/26 01:31:41;;;;;;;4.32;1.77;;;;;;;10.36;82.50;98380.03;5010008;28;20088;-80
2021/09/26 01:34:13;;;;;;;4.53;2.20;;;;;;;10.34;82.76;98383.78;5010213;28;20120;-75
2021/09/26 01:36:51;;;;;;;3.63;1.98;;;;;;;10.36;82.92;98384.50;5010012;28;20523;-76
2021/09/26 01:39:21;;;;;;;4.68;2.08;;;;;;;10.31;83.02;98382.28;5010117;28;20041;-81
2021/09/26 01:41:59;;;;;;;5.18;1.98;;;;;;;10.35;82.76;98393.38;5009831;28;20046;-78
2021/09/26 01:44:36;;;;;;;4.57;2.22;;;;;;;10.32;83.22;98393.69;4977253;28;20570;-76
2021/09/26 01:47:32;;;;;;;5.43;1.92;;;;;;;10.31;82.72;98392.03;5053147;28;20069;-80
2021/09/26 01:50:05;;;;;;;3.65;1.98;;;;;;;10.35;82.75;98398.66;5092536;28;20051;-79
2021/09/26 01:52:33;;;;;;;5.35;2.00;;;;;;;10.43;82.65;98398.81;5092460;28;20460;-78
2021/09/26 01:55:03;;;;;;;4.22;1.98;;;;;;;10.43;82.80;98397.94;5056590;28;20048;-77
2021/09/26 01:57:30;;;;;;;4.68;2.10;;;;;;;10.35;82.43;98385.47;5090972;28;20117;-78
2021/09/26 01:59:59;;;;;;;4.88;2.05;;;;;;;10.42;82.65;98391.84;5091778;28;20039;-76
2021/09/26 02:02:26;;;;;;;4.30;2.10;;;;;;;10.56;82.43;98390.50;5072718;28;20036;-77
2021/09/26 02:04:59;;;;;;;6.57;2.00;;;;;;;10.56;82.21;98387.03;5040154;28;20504;-77
2021/09/26 02:07:27;;;;;;;7.30;2.70;;;;;;;10.57;81.98;98400.09;5074361;28;20085;-80
2021/09/26 02:09:57;;;;;;;3.97;1.65;;;;;;;10.47;81.97;98400.16;5058189;28;20547;-77
2021/09/26 02:12:23;;;;;;;4.28;1.70;;;;;;;10.38;82.15;98398.41;5073683;28;20040;-79
2021/09/26 02:14:49;;;;;;;3.30;1.70;;;;;;;10.50;82.15;98405.16;5073571;28;20052;-78
2021/09/26 02:17:16;;;;;;;5.43;1.95;;;;;;;10.58;81.93;98400.91;5073582;28;20050;-79
2021/09/26 02:19:42;;;;;;;3.15;1.38;;;;;;;10.57;81.46;98401.91;5090494;28;20040;-78
2021/09/26 02:22:10;;;;;;;3.15;1.38;;;;;;;10.57;81.28;98405.38;5091370;28;20048;-80
2021/09/26 02:24:37;;;;;;;3.90;1.70;;;;;;;10.51;81.08;98405.97;5073727;28;20043;-77
2021/09/26 02:27:04;;;;;;;2.78;1.50;;;;;;;10.52;81.37;98408.47;5073440;28;20092;-78
2021/09/26 02:29:30;;;;;;;3.38;1.20;;;;;;;10.45;80.82;98410.03;5091515;28;20100;-76
2021/09/26 02:31:55;;;;;;;1.88;1.00;;;;;;;10.45;81.12;98407.41;5073102;28;20119;-77
2021/09/26 02:34:21;;;;;;;3.13;1.38;;;;;;;10.31;81.10;98415.81;5091403;28;20032;-77
2021/09/26 02:36:47;;;;;;;4.00;1.45;;;;;;;10.15;81.19;98417.28;5091747;28;20126;-78
2021/09/26 02:39:14;;;;;;;3.88;1.40;;;;;;;10.00;81.72;98416.09;5056848;28;20147;-82
2021/09/26 02:41:47;;;;;;;4.40;2.03;;;;;;;9.92;82.20;98431.84;5073992;28;20488;-77
2021/09/26 02:44:26;;;;;;;19.52;7.50;;;;;;;9.96;82.38;98414.75;5057576;28;20350;-81
2021/09/26 02:46:56;;;;;;;4.22;1.70;;;;;;;9.98;82.05;98424.19;5057254;28;20071;-79
2021/09/26 02:49:22;;;;;;;3.50;1.40;;;;;;;10.02;82.08;98427.38;5090267;28;20093;-78
2021/09/26 02:51:48;;;;;;;4.10;1.42;;;;;;;10.09;82.00;98427.59;5092622;28;20032;-79
2021/09/26 02:54:14;;;;;;;2.00;1.27;;;;;;;10.08;81.77;98432.06;5074796;28;20032;-78
2021/09/26 02:56:40;;;;;;;3.80;1.40;;;;;;;10.18;81.61;98432.84;5093436;28;20514;-77
2021/09/26 02:59:06;;;;;;;2.17;1.20;;;;;;;10.23;81.34;98436.84;5091372;28;20193;-83
2021/09/26 03:01:32;;;;;;;2.25;1.50;;;;;;;10.36;81.35;98429.44;5095073;28;20077;-78
2021/09/26 03:04:05;;;;;;;4.70;1.63;;;;;;;10.46;81.13;98424.09;5081564;28;20373;-78
2021/09/26 03:06:31;;;;;;;2.60;1.33;;;;;;;10.46;80.31;98430.22;5072279;28;20058;-74
2021/09/26 03:08:57;;;;;;;2.67;1.20;;;;;;;10.50;80.61;98428.09;5072072;28;20032;-78
2021/09/26 03:11:24;;;;;;;7.68;1.40;;;;;;;10.52;80.17;98429.63;5071218;28;20044;-77
2021/09/26 03:13:50;;;;;;;3.40;1.37;;;;;;;10.51;80.51;98432.41;5073274;28;20067;-74
2021/09/26 03:16:16;;;;;;;4.60;1.20;;;;;;;10.47;80.42;98426.59;5074680;28;20075;-76
2021/09/26 03:18:42;;;;;;;4.60;1.45;;;;;;;10.43;80.92;98435.81;5075172;28;20067;-75
2021/09/26 03:21:07;;;;;;;4.18;1.55;;;;;;;10.43;80.75;98435.81;5056975;28;20047;-77
2021/09/26 03:23:33;;;;;;;5.40;2.08;;;;;;;10.43;80.97;98434.97;5074648;28;20364;-76
2021/09/26 03:25:59;;;;;;;5.25;1.70;;;;;;;10.43;80.64;98433.16;5056412;28;20201;-77
2021/09/26 03:28:25;;;;;;;3.70;1.67;;;;;;;10.44;80.70;98432.19;5074249;28;20362;-80
2021/09/26 03:30:50;;;;;;;3.72;1.80;;;;;;;10.46;80.56;98440.78;5074143;28;20094;-76
2021/09/26 03:33:18;;;;;;;3.17;1.88;;;;;;;10.48;80.27;98428.25;5056352;28;20036;-78
2021/09/26 03:35:43;;;;;;;5.72;1.58;;;;;;;10.43;80.25;98437.59;5074231;28;20050;-77
2021/09/26 03:38:09;;;;;;;3.05;1.35;;;;;;;10.34;80.16;98441.94;5074143;28;20437;-78
2021/09/26 03:40:36;;;;;;;4.22;2.63;;;;;;;10.41;80.20;98432.47;5056346;28;20052;-75
2021/09/26 03:43:01;;;;;;;1.92;1.42;;;;;;;10.34;79.97;98436.66;5074060;28;20039;-77
2021/09/26 03:45:28;;;;;;;2.63;1.50;;;;;;;10.38;80.31;98435.44;5073847;28;20115;-78
2021/09/26 03:47:53;;;;;;;3.88;1.30;;;;;;;10.35;80.11;98435.66;5073857;28;20048;-77
2021/09/26 03:50:19;;;;;;;5.13;1.50;;;;;;;10.41;80.10;98440.41;5073982;28;20113;-80
2021/09/26 03:52:45;;;;;;;4.65;1.95;;;;;;;10.45;79.93;98441.75;5056536;28;20373;-78
2021/09/26 03:55:15;;;;;;;2.30;1.45;;;;;;;10.39;79.69;98433.59;5073795;28;20094;-78
2021/09/26 03:57:41;;;;;;;2.65;1.52;;;;;;;10.32;79.15;98441.25;5074523;28;20032;-78
2021/09/26 04:00:09;;;;;;;2.83;1.30;;;;;;;10.32;79.49;98443.91;5073708;28;20047;-80
2021/09/26 04:02:38;;;;;;;2.63;1.40;;;;;;;10.36;79.42;98450.59;5073883;28;20036;-79
2021/09/26 04:05:04;;;;;;;10.00;4.35;;;;;;;10.31;78.78;98445.69;5055740;28;20032;-80
2021/09/26 04:07:30;;;;;;;3.20;1.50;;;;;;;10.38;78.83;98447.78;5073463;28;20042;-78
2021/09/26 04:09:56;;;;;;;4.38;1.58;;;;;;;10.40;79.01;98456.41;5073356;28;20037;-80
2021/09/26 04:12:22;;;;;;;5.85;1.48;;;;;;;10.36;78.46;98455.88;5055815;28;20369;-82
2021/09/26 04:14:47;;;;;;;3.08;1.42;;;;;;;10.36;78.72;98451.41;5072282;28;20098;-77
2021/09/26 04:17:13;;;;;;;3.22;1.55;;;;;;;10.42;78.36;98455.28;5073649;28;20072;-78
2021/09/26 04:19:40;;;;;;;4.82;1.75;;;;;;;10.48;78.00;98454.69;5073933;28;20044;-77
2021/09/26 04:22:05;;;;;;;7.45;2.63;;;;;;;10.49;77.43;98461.66;5073939;28;20040;-81
2021/09/26 04:24:31;;;;;;;7.85;2.70;;;;;;;10.51;76.86;98458.84;5072264;28;20390;-76
2021/09/26 04:26:57;;;;;;;4.70;2.00;;;;;;;10.57;77.35;98454.78;5073194;28;20407;-77
2021/09/26 04:29:23;;;;;;;2.72;1.50;;;;;;;10.51;77.24;98459.66;5073549;28;20032;-77
2021/09/26 04:31:49;;;;;;;2.97;2.30;;;;;;;10.51;77.08;98459.66;5073399;28;20052;-77
2021/09/26 04:34:15;;;;;;;6.35;2.20;;;;;;;10.59;77.17;98460.75;5073295;28;20044;-79
2021/09/26 04:36:44;;;;;;;4.25;1.83;;;;;;;10.56;76.90;98458.41;5073177;28;20032;-77
2021/09/26 04:39:09;;;;;;;5.60;2.33;;;;;;;10.64;76.36;98461.97;5056383;28;20044;-78
2021/09/26 04:41:35;;;;;;;4.68;2.60;;;;;;;10.63;76.55;98462.09;5054906;28;20040;-77
2021/09/26 04:44:01;;;;;;;4.57;2.00;;;;;;;10.63;76.22;98475.31;5055086;28;20457;-78
2021/09/26 04:46:27;;;;;;;5.25;2.03;;;;;;;10.61;76.50;98456.16;5072086;28;20040;-75
2021/09/26 04:48:53;;;;;;;4.70;1.80;;;;;;;10.59;76.38;98466.88;5073252;28;20122;-77
2021/09/26 04:51:18;;;;;;;4.13;1.92;;;;;;;10.56;76.09;98471.63;5073478;28;20029;-80
2021/09/26 04:53:46;;;;;;;3.90;2.57;;;;;;;10.54;76.54;98466.47;5073565;28;20633;-76
2021/09/26 04:56:11;;;;;;;3.90;2.28;;;;;;;10.54;76.44;98465.66;5055046;28;20318;-79
2021/09/26 04:58:37;;;;;;;5.53;1.90;;;;;;;10.62;77.08;98471.84;5055359;28;20491;-77
2021/09/26 05:01:03;;;;;;;7.38;2.10;;;;;;;10.68;76.62;98473.09;5072706;28;20496;-79
2021/09/26 05:03:28;;;;;;;5.07;2.00;;;;;;;10.72;75.72;98471.81;5073347;28;20381;-81
2021/09/26 05:05:55;;;;;;;11.27;4.32;;;;;;;10.77;76.22;98471.38;5072909;28;20043;-80
2021/09/26 05:08:21;;;;;;;13.07;3.67;;;;;;;10.79;75.00;98475.53;5072991;28;20441;-78
2021/09/26 05:10:46;;;;;;;7.10;2.72;;;;;;;10.80;75.23;98489.56;5072890;28;20083;-79
2021/09/26 05:13:12;;;;;;;7.00;2.30;;;;;;;10.95;75.31;98477.50;5054416;28;20040;-80
2021/09/26 05:15:38;;;;;;;4.70;1.90;;;;;;;10.93;75.19;98481.25;5072477;28;20086;-78
2021/09/26 05:18:04;;;;;;;4.60;1.85;;;;;;;10.97;75.21;98490.56;5072294;28;20040;-78
2021/09/26 05:20:29;;;;;;;5.57;1.92;;;;;;;10.88;74.47;98494.09;5072488;28;20550;-76
2021/09/26 05:22:55;;;;;;;4.47;2.00;;;;;;;10.79;74.96;98494.03;5072281;28;20029;-81
2021/09/26 05:25:22;;;;;;;5.70;2.45;;;;;;;10.89;75.56;98498.41;5072337;28;20036;-80
2021/09/26 05:27:48;;;;;;;6.13;1.90;;;;;;;10.95;74.85;98497.81;5073200;28;20544;-74
2021/09/26 05:30:14;;;;;;;5.65;2.42;;;;;;;10.96;75.27;98504.78;5055103;28;20123;-76
2021/09/26 05:32:40;;;;;;;3.17;1.70;;;;;;;10.96;74.67;98500.31;5072709;28;20358;-78
2021/09/26 05:35:06;;;;;;;6.10;1.60;;;;;;;10.97;74.80;98495.88;5071731;28;20082;-84
2021/09/26 05:37:32;;;;;;;3.78;1.60;;;;;;;11.03;75.00;98505.00;5054367;28;20037;-81
2021/09/26 05:39:57;;;;;;;6.95;1.77;;;;;;;11.05;74.56;98503.84;5072260;28;20048;-77
2021/09/26 05:42:23;;;;;;;4.88;1.52;;;;;;;11.21;74.67;98505.00;5072821;28;20512;-86
2021/09/26 05:44:49;;;;;;;5.18;2.35;;;;;;;11.19;74.65;98499.03;5090277;28;20358;-80
2021/09/26 05:47:15;;;;;;;10.70;4.88;;;;;;;11.25;74.63;98501.91;5074330;28;20465;-77
2021/09/26 05:49:41;;;;;;;4.88;2.08;;;;;;;11.27;74.42;98507.06;5092772;28;20074;-79
2021/09/26 05:52:09;;;;;;;4.40;1.45;;;;;;;11.13;74.48;98506.59;5092983;28;20562;-79
2021/09/26 05:54:36;;;;;;;3.30;1.55;;;;;;;11.18;73.96;98519.38;5086994;28;20085;-79
2021/09/26 05:57:03;;;;;;;5.30;1.73;;;;;;;11.08;74.14;98516.81;5093891;28;20040;-78
2021/09/26 05:59:30;;;;;;;6.07;2.67;;;;;;;10.98;75.30;98518.69;5099265;28;20453;-78
2021/09/26 06:01:56;;;;;;;9.40;4.15;;;;;;;11.09;74.84;98518.47;5094153;28;20072;-75
2021/09/26 06:04:22;;;;;;;4.60;2.10;;;;;;;11.16;74.80;98524.84;5066802;28;20036;-86
2021/09/26 06:06:47;;;;;;;3.20;1.52;;;;;;;11.24;74.26;98517.94;5071190;28;20071;-77
2021/09/26 06:09:13;;;;;;;4.32;1.75;;;;;;;11.33;74.53;98525.78;5070443;28;20177;-79
2021/09/26 06:11:39;;;;;;;4.80;1.80;;;;;;;11.21;74.83;98523.53;5072236;28;20046;-78
2021/09/26 06:14:04;;;;;;;4.85;3.08;;;;;;;11.26;75.19;98530.03;5071124;28;20055;-79
2021/09/26 06:16:30;;;;;;;6.35;3.50;;;;;;;11.17;74.86;98526.47;5071524;28;20261;-82
2021/09/26 06:18:56;;;;;;;5.55;2.08;;;;;;;11.21;74.57;98534.13;5072160;28;20051;-79
2021/09/26 06:21:21;;;;;;;4.78;1.65;;;;;;;11.12;75.30;98536.69;5071986;28;20043;-78
2021/09/26 06:23:47;;;;;;;3.22;1.55;;;;;;;11.16;74.95;98540.72;5088595;28;20043;-79
2021/09/26 06:26:14;;;;;;;3.17;1.70;;;;;;;11.19;75.14;98546.66;5091698;28;20040;-78
2021/09/26 06:28:40;;;;;;;3.45;1.38;;;;;;;11.08;75.21;98545.91;5076208;28;20131;-79
2021/09/26 06:31:06;;;;;;;9.85;1.65;;;;;;;11.03;75.09;98547.31;5088761;28;20237;-76
2021/09/26 06:33:32;;;;;;;4.07;1.70;;;;;;;11.12;75.46;98541.97;5080843;28;20430;-79
2021/09/26 06:35:58;;;;;;;4.10;1.40;;;;;;;11.31;75.15;98550.75;5072712;28;20118;-74
2021/09/26 06:38:24;;;;;;;3.53;1.55;;;;;;;11.38;73.99;98546.53;5083137;28;20024;-79
2021/09/26 06:40:50;;;;;;;2.65;1.30;;;;;;;11.33;73.88;98554.09;5092250;28;20040;-78
2021/09/26 06:43:16;;;;;;;2.55;1.17;;;;;;;11.23;73.73;98553.34;5077095;28;20068;-77
2021/09/26 06:45:41;;;;;;;2.38;1.13;;;;;;;11.12;74.48;98563.16;5059650;28;20106;-80
2021/09/26 06:48:07;;;;;;;2.97;1.83;;;;;;;11.17;74.57;98563.53;5079067;28;20685;-77
2021/09/26 06:50:33;;;;;;;2.35;1.40;;;;;;;11.12;74.37;98571.09;5063244;28;20044;-78
2021/09/26 06:52:59;;;;;;;5.47;1.63;;;;;;;11.04;74.53;98576.31;5080588;28;20117;-77
2021/09/26 06:55:25;;;;;;;3.70;2.10;;;;;;;10.93;74.74;98576.47;5085828;28;20036;-81
2021/09/26 06:57:50;;;;;;;5.00;1.80;;;;;;;10.77;75.19;98570.03;5076127;28;20128;-76
2021/09/26 07:00:17;;;;;;;3.47;1.95;;;;;;;10.80;75.41;98584.78;5067822;28;20041;-79
2021/09/26 07:02:43;;;;;;;6.13;2.10;;;;;;;10.96;75.14;98589.44;5076164;28;20075;-82
2021/09/26 07:05:10;;;;;;;3.28;1.88;;;;;;;11.04;74.53;98588.69;5075347;28;20032;-80
2021/09/26 07:07:36;;;;;;;5.45;2.50;;;;;;;11.00;74.82;98591.66;5075842;28;20076;-77
2021/09/26 07:10:02;;;;;;;4.68;2.20;;;;;;;11.13;73.99;98593.91;5092416;28;20480;-79
2021/09/26 07:12:28;;;;;;;7.20;2.10;;;;;;;11.35;73.26;98591.81;5083169;28;20055;-78
2021/09/26 07:14:57;;;;;;;4.28;2.40;;;;;;;11.57;72.41;98592.38;5077594;28;20083;-77
2021/09/26 07:17:22;;;;;;;3.92;2.10;;;;;;;11.62;71.69;98595.41;5083459;28;20132;-79
2021/09/26 07:19:48;;;;;;;4.63;2.42;;;;;;;11.74;71.21;98594.19;5078305;28;20123;-82
2021/09/26 07:22:23;;;;;;;2.80;1.73;;;;;;;11.75;71.12;98601.16;5060020;28;20028;-80
2021/09/26 07:24:50;;;;;;;4.70;2.50;;;;;;;12.13;70.18;98596.47;5095756;28;20078;-79
2021/09/26 07:27:17;;;;;;;3.97;2.33;;;;;;;12.31;69.30;98603.56;5097259;28;20043;-80
2021/09/26 07:29:43;;;;;;;5.72;2.50;;;;;;;12.30;69.42;98604.56;5071288;28;20036;-76
2021/09/26 07:32:09;;;;;;;4.25;1.90;;;;;;;12.39;69.12;98614.22;5088197;28;20104;-79
2021/09/26 07:34:35;;;;;;;6.15;3.40;;;;;;;12.72;68.32;98614.41;5070294;28;20039;-78
2021/09/26 07:37:01;;;;;;;6.45;2.00;;;;;;;12.95;67.24;98619.16;5092079;28;20054;-81
2021/09/26 07:39:26;;;;;;;5.70;2.05;;;;;;;12.80;66.73;98618.91;5068897;28;20044;-76
2021/09/26 07:41:52;;;;;;;4.65;2.13;;;;;;;12.65;67.27;98620.50;5092160;28;20040;-78
2021/09/26 07:44:18;;;;;;;4.97;2.30;;;;;;;12.49;68.06;98623.91;5092091;28;20465;-82
2021/09/26 07:46:44;;;;;;;3.33;2.13;;;;;;;12.53;67.50;98627.91;5094012;28;20074;-82
2021/09/26 07:49:10;;;;;;;4.72;2.10;;;;;;;12.56;66.98;98627.56;5057982;28;20547;-83
2021/09/26 07:51:36;;;;;;;4.00;1.60;;;;;;;12.58;67.23;98630.91;5068814;28;20067;-81
2021/09/26 07:54:04;;;;;;;3.97;2.00;;;;;;;12.36;67.76;98630.47;5091021;28;20457;-79
2021/09/26 07:56:31;;;;;;;6.13;2.38;;;;;;;12.16;68.76;98639.56;5094475;28;20036;-77
2021/09/26 07:58:57;;;;;;;3.92;2.03;;;;;;;12.09;69.56;98640.19;5076171;28;20044;-81
2021/09/26 08:01:23;;;;;;;9.75;4.18;;;;;;;11.95;70.26;98644.19;5080724;28;20024;-80
2021/09/26 08:03:49;;;;;;;4.20;2.05;;;;;;;12.22;69.78;98633.66;5083034;28;20060;-78
2021/09/26 08:06:16;;;;;;;5.88;2.20;;;;;;;12.39;68.88;98646.03;5076027;28;20040;-79
2021/09/26 08:08:42;;;;;;;4.45;2.25;;;;;;;12.25;68.26;98654.53;5075713;28;20474;-79
2021/09/26 08:11:08;;;;;;;4.85;2.53;;;;;;;12.06;68.78;98661.72;5075596;28;20119;-80
2021/09/26 08:13:34;;;;;;;3.58;2.08;;;;;;;11.77;69.45;98656.63;5077238;28;20048;-79
2021/09/26 08:16:01;;;;;;;3.05;2.10;;;;;;;11.60;70.06;98658.25;5077113;28;20046;-80
2021/09/26 08:18:27;;;;;;;5.68;2.63;;;;;;;11.74;69.66;98671.00;5088809;28;20177;-79
2021/09/26 08:20:53;;;;;;;5.60;2.85;;;;;;;11.79;69.39;98671.38;5075442;28;20029;-81
2021/09/26 08:23:19;;;;;;;5.25;2.67;;;;;;;11.68;69.55;98679.53;5081131;28;20553;-81
2021/09/26 08:25:45;;;;;;;5.88;2.83;;;;;;;11.62;70.34;98678.31;5096431;28;20036;-78
2021/09/26 08:28:12;;;;;;;5.40;3.28;;;;;;;11.55;69.94;98685.22;5095254;28;20110;-77
2021/09/26 08:30:38;;;;;;;6.65;2.60;;;;;;;11.50;70.62;98690.09;5095267;28;20059;-75
2021/09/26 08:33:04;;;;;;;4.88;2.55;;;;;;;11.60;70.80;98700.63;5094587;28;20093;-79
2021/09/26 08:35:30;;;;;;;6.47;3.50;;;;;;;11.47;70.98;98708.94;5094844;28;20047;-81
2021/09/26 08:37:57;;;;;;;7.20;3.85;;;;;;;11.41;70.94;98699.78;5094976;28;20050;-80
2021/09/26 08:40:23;;;;;;;5.53;2.40;;;;;;;11.34;71.57;98709.31;5077447;28;20046;-80
2021/09/26 08:42:49;;;;;;;4.38;2.65;;;;;;;11.35;71.79;98710.94;5078814;28;20040;-80
2021/09/26 08:45:19;;;;;;;9.18;3.67;;;;;;;11.46;72.17;98716.06;5076958;28;20044;-79
2021/09/26 08:47:45;;;;;;;6.20;3.22;;;;;;;11.38;72.73;98721.25;5096260;28;20039;-82
2021/09/26 08:50:17;;;;;;;6.32;3.40;;;;;;;11.36;73.67;98725.03;5077388;28;20036;-80
2021/09/26 08:52:44;;;;;;;8.55;3.72;;;;;;;11.40;73.79;98723.75;5095635;28;20052;-83
2021/09/26 08:55:11;;;;;;;7.63;3.42;;;;;;;11.68;73.64;98732.53;5095722;28;20050;-85
2021/09/26 08:57:37;;;;;;;6.57;3.88;;;;;;;11.82;72.90;98739.97;5094570;28;20507;-82
2021/09/26 09:00:05;;;;;;;6.57;3.40;;;;;;;11.96;72.15;98735.16;5075775;28;20143;-81
2021/09/26 09:02:31;;;;;;;5.40;3.40;;;;;;;11.88;72.26;98737.69;5094084;28;20036;-81
2021/09/26 09:04:56;;;;;;;13.23;6.78;;;;;;;11.91;72.18;98738.25;5094526;28;20047;-76
2021/09/26 09:07:22;;;;;;;8.98;3.80;;;;;;;12.11;71.96;98738.94;5093862;28;20469;-78
2021/09/26 09:09:53;;;;;;;7.38;3.05;;;;;;;12.45;70.86;98740.06;5094563;28;20031;-81
2021/09/26 09:12:36;;;;;;;7.20;3.33;;;;;;;12.77;69.15;98738.63;5076583;28;20032;-81
2021/09/26 09:15:06;;;;;;;5.70;3.20;;;;;;;12.89;68.05;98734.72;5091880;28;20044;-79
2021/09/26 09:17:34;;;;;;;6.43;3.88;;;;;;;13.00;67.53;98736.28;5093422;28;20048;-80
2021/09/26 09:20:12;;;;;;;10.30;3.58;;;;;;;13.34;66.17;98735.44;5093762;28;20036;-82
2021/09/26 09:22:39;;;;;;;9.15;3.70;;;;;;;13.65;64.73;98742.91;5094642;28;20040;-86
2021/09/26 09:25:05;;;;;;;7.13;2.92;;;;;;;13.90;63.90;98737.66;5091118;28;20040;-83
2021/09/26 09:27:32;;;;;;;10.38;3.60;;;;;;;13.73;65.13;98745.59;5072960;28;20028;-79
2021/09/26 09:29:58;;;;;;;8.05;5.00;;;;;;;13.55;64.91;98742.22;5061947;28;20499;-80
2021/09/26 09:32:24;;;;;;;6.32;3.42;;;;;;;13.52;64.87;98746.03;5093125;28;20040;-84
2021/09/26 09:34:50;;;;;;;6.63;2.88;;;;;;;13.31;64.85;98762.34;5059230;28;20075;-83
2021/09/26 09:37:17;;;;;;;6.78;4.22;;;;;;;13.29;65.07;98753.69;5040622;28;20089;-80
2021/09/26 09:40:20;;;;;;;7.32;3.38;;;;;;;13.15;65.91;98759.59;5058958;28;20040;-84
2021/09/26 09:42:47;;;;;;;14.32;5.70;;;;;;;12.93;65.77;98753.81;5060811;28;20084;-80
2021/09/26 09:45:30;;;;;;;11.95;5.13;;;;;;;12.88;66.06;98750.81;5044651;28;20044;-82
2021/09/26 09:48:08;;;;;;;12.23;5.00;;;;;;;12.93;65.61;98759.13;5045054;28;20028;-80
2021/09/26 09:50:33;;;;;;;10.25;5.22;;;;;;;12.93;65.82;98756.47;5063027;28;20044;-81
2021/09/26 09:53:02;;;;;;;19.13;9.00;;;;;;;12.90;65.90;98770.06;5046380;28;20069;-84
2021/09/26 09:55:29;;;;;;;8.18;3.20;;;;;;;12.91;65.91;98763.75;5083791;28;20052;-82
2021/09/26 09:58:16;;;;;;;8.13;3.73;;;;;;;12.88;66.03;98769.38;5060484;28;20136;-86
2021/09/26 10:00:51;;;;;;;4.68;2.03;;;;;;;12.75;65.73;98767.97;5063458;28;20082;-78
2021/09/26 10:03:36;;;;;;;6.90;2.78;;;;;;;12.77;65.23;98770.47;5069465;28;20032;-80
2021/09/26 10:06:17;;;;;;;4.78;2.38;;;;;;;12.68;65.42;98782.00;5045957;28;20136;-77
2021/09/26 10:08:46;;;;;;;5.35;3.38;;;;;;;12.75;65.78;98783.06;5077559;28;20035;-83
2021/09/26 10:11:12;;;;;;;7.75;3.80;;;;;;;12.87;65.90;98788.94;5094058;28;20035;-79
2021/09/26 10:13:38;;;;;;;6.07;2.90;;;;;;;12.99;65.16;98790.34;5074852;28;20052;-81
2021/09/26 10:16:06;;;;;;;8.02;2.40;;;;;;;13.27;64.73;98799.00;5087494;28;20465;-81
2021/09/26 10:18:33;;;;;;;3.25;2.00;;;;;;;13.55;64.00;98801.47;5072101;28;20059;-80
2021/09/26 10:21:00;;;;;;;4.88;2.60;;;;;;;13.67;63.50;98802.03;5090903;28;20051;-80
2021/09/26 10:23:26;;;;;;;4.65;2.20;;;;;;;13.52;62.80;98806.28;5081769;28;20039;-81
2021/09/26 10:25:52;;;;;;;5.20;1.90;;;;;;;13.31;63.68;98796.00;5074326;28;20032;-82
2021/09/26 10:28:18;;;;;;;5.95;2.75;;;;;;;13.11;64.58;98804.22;5073226;28;20032;-80
2021/09/26 10:30:44;;;;;;;9.07;3.78;;;;;;;12.82;65.62;98804.50;5056125;28;20135;-79
2021/09/26 10:33:12;;;;;;;5.95;2.88;;;;;;;12.70;66.21;98812.72;5056680;28;20409;-83
2021/09/26 10:35:39;;;;;;;6.80;3.22;;;;;;;12.62;66.09;98813.47;5057048;28;20035;-83
2021/09/26 10:38:09;;;;;;;5.40;2.80;;;;;;;12.58;66.45;98806.78;5060137;28;20067;-83
2021/09/26 10:40:41;;;;;;;4.43;2.10;;;;;;;12.37;66.36;98816.88;5030626;28;20028;-85
2021/09/26 10:43:22;;;;;;;5.25;2.15;;;;;;;12.12;67.17;98825.44;5045070;28;20040;-79
2021/09/26 10:45:48;;;;;;;4.63;2.20;;;;;;;12.01;67.77;98827.47;5027000;28;20039;-79
2021/09/26 10:48:15;;;;;;;3.63;1.83;;;;;;;12.00;67.55;98826.63;5076103;28;20370;-79
2021/09/26 10:50:42;;;;;;;5.57;2.38;;;;;;;11.92;67.92;98834.44;5056639;28;20070;-80
2021/09/26 10:53:15;;;;;;;3.63;1.90;;;;;;;11.87;67.96;98836.72;5055608;28;20113;-80
2021/09/26 10:55:41;;;;;;;4.03;2.00;;;;;;;11.65;68.03;98833.44;5073258;28;20469;-83
2021/09/26 10:58:07;;;;;;;5.63;2.28;;;;;;;11.76;67.84;98846.53;5056084;28;20063;-80
2021/09/26 11:00:49;;;;;;;5.55;2.20;;;;;;;11.92;67.69;98840.56;5055531;28;20075;-81
2021/09/26 11:03:23;;;;;;;5.85;2.25;;;;;;;12.11;67.22;98849.44;5054884;28;20067;-81
2021/09/26 11:05:52;;;;;;;7.80;2.95;;;;;;;12.42;66.76;98847.28;5054948;28;20116;-82
2021/09/26 11:08:24;;;;;;;4.00;1.75;;;;;;;12.54;65.61;98852.38;5022217;28;20063;-80
2021/09/26 11:10:58;;;;;;;5.45;1.80;;;;;;;12.88;65.04;98856.97;5054235;28;20032;-80
2021/09/26 11:13:31;;;;;;;2.40;1.40;;;;;;;13.08;63.40;98847.00;5055423;28;20056;-81
2021/09/26 11:16:18;;;;;;;3.88;1.88;;;;;;;13.35;62.61;98848.66;5057761;28;20142;-82
2021/09/26 11:19:13;;;;;;;6.57;1.98;;;;;;;13.83;60.68;98859.75;5055852;28;20086;-81
2021/09/26 11:21:40;;;;;;;2.83;1.70;;;;;;;13.71;60.80;98859.19;5039850;28;20028;-81
2021/09/26 11:24:10;;;;;;;3.40;1.77;;;;;;;13.43;61.69;98872.66;5056632;28;20052;-84
2021/09/26 11:26:59;;;;;;;3.40;1.88;;;;;;;13.26;61.81;98878.81;5055608;28;20043;-83
2021/09/26 11:29:28;;;;;;;3.50;2.00;;;;;;;13.17;62.46;98877.09;5039935;28;20462;-83
2021/09/26 11:31:55;;;;;;;5.50;1.90;;;;;;;12.98;62.63;98878.94;5023384;28;20058;-83
2021/09/26 11:35:00;;;;;;;6.78;2.08;;;;;;;12.75;63.40;98895.34;5023937;28;20028;-80
2021/09/26 11:37:38;;;;;;;2.67;1.30;;;;;;;12.66;63.11;98890.09;4996607;28;20097;-82
2021/09/26 11:40:13;;;;;;;4.32;1.60;;;;;;;12.58;63.02;98901.47;4965429;28;20132;-83